createdAt,value
2016-06-18T00:00:12.067Z,14.88
2016-06-18T00:01:12.085Z,14.86
2016-06-18T00:02:12.137Z,14.95
2016-06-18T00:03:12.170Z,14.98
2016-06-18T00:04:12.205Z,14.9
2016-06-18T00:05:12.255Z,14.86
2016-06-18T00:06:12.290Z,14.87
2016-06-18T00:07:12.340Z,14.91
2016-06-18T00:08:12.391Z,14.84
2016-06-18T00:09:12.425Z,14.9
2016-06-18T00:10:12.445Z,14.88
2016-06-18T00:11:12.496Z,14.84
2016-06-18T00:12:12.530Z,14.8
2016-06-18T00:13:12.565Z,14.81
2016-06-18T00:14:12.615Z,14.84
2016-06-18T00:15:12.650Z,14.81
2016-06-18T00:16:12.731Z,14.84
2016-06-18T00:17:12.735Z,14.78
2016-06-18T00:18:12.769Z,14.75
2016-06-18T00:19:12.851Z,14.72
2016-06-18T00:20:13.495Z,14.69
2016-06-18T00:21:12.905Z,14.78
2016-06-18T00:22:12.971Z,14.75
2016-06-18T00:23:12.974Z,14.72
2016-06-18T00:24:13.010Z,14.74
2016-06-18T00:25:13.060Z,14.75
2016-06-18T00:26:13.734Z,14.65
2016-06-18T00:27:13.129Z,14.75
2016-06-18T00:28:13.820Z,14.75
2016-06-18T00:29:13.214Z,14.69
2016-06-18T00:30:13.311Z,14.67
2016-06-18T00:31:13.283Z,14.68
2016-06-18T00:32:13.335Z,14.67
2016-06-18T00:33:13.399Z,14.65
2016-06-18T00:34:13.419Z,14.61
2016-06-18T00:35:13.453Z,14.62
2016-06-18T00:36:13.676Z,14.61
2016-06-18T00:37:13.539Z,14.65
2016-06-18T00:38:13.589Z,14.61
2016-06-18T00:39:13.623Z,14.61
2016-06-18T00:40:13.658Z,14.61
2016-06-18T00:41:13.724Z,14.6
2016-06-18T00:42:13.775Z,14.53
2016-06-18T00:43:13.794Z,14.49
2016-06-18T00:44:13.844Z,14.53
2016-06-18T00:45:13.863Z,14.53
2016-06-18T00:46:13.897Z,14.5
2016-06-18T00:47:13.932Z,14.52
2016-06-18T00:48:14.014Z,14.5
2016-06-18T00:49:14.002Z,14.54
2016-06-18T00:50:14.052Z,14.5
2016-06-18T00:51:14.086Z,14.44
2016-06-18T00:52:14.138Z,14.5
2016-06-18T00:53:14.203Z,14.47
2016-06-18T00:54:14.206Z,14.35
2016-06-18T00:55:14.257Z,14.35
2016-06-18T00:56:14.323Z,14.46
2016-06-18T00:57:14.342Z,14.42
2016-06-18T00:58:14.377Z,14.42
2016-06-18T00:59:14.412Z,14.39
2016-06-18T01:00:14.446Z,14.37
2016-06-18T01:01:14.497Z,14.38
2016-06-18T01:02:14.531Z,14.44
2016-06-18T01:03:14.566Z,14.38
2016-06-18T01:04:14.663Z,14.38
2016-06-18T01:05:15.307Z,14.37
2016-06-18T01:06:14.717Z,14.42
2016-06-18T01:07:14.736Z,14.39
2016-06-18T01:08:14.771Z,14.29
2016-06-18T01:09:14.805Z,14.39
2016-06-18T01:10:14.871Z,14.35
2016-06-18T01:11:14.922Z,14.32
2016-06-18T01:12:14.957Z,14.28
2016-06-18T01:13:14.991Z,14.31
2016-06-18T01:14:15.042Z,14.29
2016-06-18T01:15:15.061Z,14.24
2016-06-18T01:16:15.095Z,14.31
2016-06-18T01:17:15.161Z,14.21
2016-06-18T01:18:15.180Z,14.34
2016-06-18T01:19:15.215Z,14.29
2016-06-18T01:20:15.234Z,14.35
2016-06-18T01:21:15.300Z,14.24
2016-06-18T01:22:15.350Z,14.31
2016-06-18T01:23:15.369Z,14.21
2016-06-18T01:24:15.405Z,14.31
2016-06-18T01:25:15.454Z,14.32
2016-06-18T01:26:15.489Z,14.24
2016-06-18T01:27:16.165Z,14.27
2016-06-18T01:28:15.574Z,14.16
2016-06-18T01:29:15.593Z,14.17
2016-06-18T01:30:15.691Z,14.17
2016-06-18T01:31:16.382Z,14.17
2016-06-18T01:32:15.729Z,14.25
2016-06-18T01:33:15.780Z,14.17
2016-06-18T01:34:15.830Z,14.16
2016-06-18T01:35:15.880Z,14.34
2016-06-18T01:36:15.898Z,14.38
2016-06-18T01:37:15.934Z,14.21
2016-06-18T01:38:15.984Z,14.17
2016-06-18T01:39:16.003Z,14.2
2016-06-18T01:40:16.054Z,14.31
2016-06-18T01:41:16.119Z,14.13
2016-06-18T01:42:16.139Z,14.19
2016-06-18T01:43:16.189Z,14.16
2016-06-18T01:44:16.223Z,14.29
2016-06-18T01:45:16.258Z,14.29
2016-06-18T01:46:16.294Z,14.19
2016-06-18T01:47:16.328Z,14.17
2016-06-18T01:48:16.409Z,14.25
2016-06-18T01:49:16.397Z,14.25
2016-06-18T01:50:16.448Z,14.14
2016-06-18T01:51:16.497Z,14.21
2016-06-18T01:52:16.532Z,14.28
2016-06-18T01:53:16.583Z,14.16
2016-06-18T01:54:16.621Z,14.25
2016-06-18T01:55:16.642Z,14.17
2016-06-18T01:56:16.679Z,14.24
2016-06-18T01:57:16.733Z,14.17
2016-06-18T01:58:17.428Z,14.21
2016-06-18T01:59:16.839Z,14.21
2016-06-18T02:00:16.859Z,14.16
2016-06-18T02:01:16.911Z,14.13
2016-06-18T02:02:16.962Z,14.17
2016-06-18T02:03:16.982Z,14.2
2016-06-18T02:04:17.064Z,14.2
2016-06-18T02:05:17.084Z,14.12
2016-06-18T02:06:17.103Z,14.2
2016-06-18T02:07:17.154Z,14.2
2016-06-18T02:08:17.221Z,14.13
2016-06-18T02:09:17.240Z,14.14
2016-06-18T02:10:17.275Z,14.21
2016-06-18T02:11:17.310Z,14.19
2016-06-18T02:12:17.361Z,14.1
2016-06-18T02:13:17.380Z,14.09
2016-06-18T02:14:17.415Z,14.07
2016-06-18T02:15:17.481Z,14.13
2016-06-18T02:16:17.547Z,14.12
2016-06-18T02:17:17.551Z,14.09
2016-06-18T02:18:17.585Z,14.14
2016-06-18T02:19:17.619Z,14.09
2016-06-18T02:20:17.670Z,14.06
2016-06-18T02:21:18.345Z,14.14
2016-06-18T02:22:17.755Z,14.12
2016-06-18T02:23:17.789Z,14.09
2016-06-18T02:24:18.528Z,14.1
2016-06-18T02:25:18.562Z,14.12
2016-06-18T02:26:17.910Z,14.12
2016-06-18T02:27:17.928Z,14.12
2016-06-18T02:28:17.978Z,14.13
2016-06-18T02:29:18.670Z,14.12
2016-06-18T02:30:18.064Z,14.21
2016-06-18T02:31:18.099Z,14.14
2016-06-18T02:32:18.150Z,14.13
2016-06-18T02:33:18.215Z,14.14
2016-06-18T02:34:18.218Z,14.13
2016-06-18T02:35:18.269Z,14.09
2016-06-18T02:36:18.320Z,14.13
2016-06-18T02:37:18.353Z,14.09
2016-06-18T02:38:18.388Z,14.06
2016-06-18T02:39:18.424Z,14.17
2016-06-18T02:40:18.490Z,14.1
2016-06-18T02:41:18.508Z,14.13
2016-06-18T02:42:18.543Z,14.14
2016-06-18T02:43:18.608Z,14.13
2016-06-18T02:44:18.612Z,14.07
2016-06-18T02:45:18.648Z,14.09
2016-06-18T02:46:18.728Z,14.09
2016-06-18T02:47:18.732Z,14.1
2016-06-18T02:48:18.783Z,14.06
2016-06-18T02:49:18.818Z,14.02
2016-06-18T02:50:18.867Z,14.06
2016-06-18T02:51:18.886Z,14.07
2016-06-18T02:52:18.953Z,14.09
2016-06-18T02:53:18.972Z,13.96
2016-06-18T02:54:19.021Z,14.04
2016-06-18T02:55:19.057Z,14.02
2016-06-18T02:56:19.763Z,14.09
2016-06-18T02:57:19.173Z,14.04
2016-06-18T02:58:19.177Z,14.07
2016-06-18T02:59:19.243Z,14.09
2016-06-18T03:00:19.308Z,14.04
2016-06-18T03:01:19.296Z,14.06
2016-06-18T03:02:19.331Z,14.01
2016-06-18T03:03:19.366Z,14.02
2016-06-18T03:04:19.400Z,14.07
2016-06-18T03:05:19.466Z,14.06
2016-06-18T03:06:20.017Z,13.98
2016-06-18T03:07:20.052Z,14.07
2016-06-18T03:08:19.586Z,14.1
2016-06-18T03:09:19.605Z,14.01
2016-06-18T03:10:19.656Z,14.02
2016-06-18T03:11:19.705Z,14.02
2016-06-18T03:12:19.741Z,13.99
2016-06-18T03:13:19.775Z,13.99
2016-06-18T03:14:19.825Z,14.07
2016-06-18T03:15:19.891Z,14.01
2016-06-18T03:16:19.880Z,14.04
2016-06-18T03:17:19.930Z,13.96
2016-06-18T03:18:19.965Z,14.06
2016-06-18T03:19:19.999Z,14.09
2016-06-18T03:20:20.049Z,14.09
2016-06-18T03:21:20.084Z,14.09
2016-06-18T03:22:20.135Z,14.1
2016-06-18T03:23:20.184Z,14.09
2016-06-18T03:24:20.235Z,14.12
2016-06-18T03:25:20.239Z,14.09
2016-06-18T03:26:20.289Z,14.09
2016-06-18T03:27:20.979Z,14.16
2016-06-18T03:28:20.374Z,14.06
2016-06-18T03:29:20.408Z,14.12
2016-06-18T03:30:20.443Z,14.12
2016-06-18T03:31:20.494Z,14.1
2016-06-18T03:32:20.527Z,14.12
2016-06-18T03:33:20.563Z,14.04
2016-06-18T03:34:20.614Z,14.16
2016-06-18T03:35:20.649Z,14.12
2016-06-18T03:36:20.682Z,14.17
2016-06-18T03:37:20.733Z,14.2
2016-06-18T03:38:20.768Z,14.07
2016-06-18T03:39:20.849Z,14.24
2016-06-18T03:40:20.838Z,14.24
2016-06-18T03:41:20.950Z,14.28
2016-06-18T03:42:20.953Z,14.17
2016-06-18T03:43:21.004Z,14.2
2016-06-18T03:44:20.992Z,14.2
2016-06-18T03:45:21.042Z,14.21
2016-06-18T03:46:21.092Z,14.21
2016-06-18T03:47:21.143Z,14.13
2016-06-18T03:48:21.177Z,14.12
2016-06-18T03:49:21.228Z,14.2
2016-06-18T03:50:21.247Z,14.24
2016-06-18T03:51:21.985Z,14.28
2016-06-18T03:52:21.332Z,14.24
2016-06-18T03:53:21.351Z,14.35
2016-06-18T03:54:21.417Z,14.24
2016-06-18T03:55:21.482Z,14.25
2016-06-18T03:56:21.486Z,14.28
2016-06-18T03:57:21.521Z,14.16
2016-06-18T03:58:21.572Z,14.24
2016-06-18T03:59:21.637Z,14.34
2016-06-18T04:00:21.657Z,14.32
2016-06-18T04:01:21.691Z,14.31
2016-06-18T04:02:21.742Z,14.29
2016-06-18T04:03:21.745Z,14.38
2016-06-18T04:04:21.827Z,14.39
2016-06-18T04:05:22.502Z,14.43
2016-06-18T04:06:21.895Z,14.37
2016-06-18T04:07:21.946Z,14.35
2016-06-18T04:08:21.966Z,14.44
2016-06-18T04:09:22.000Z,14.39
2016-06-18T04:10:22.021Z,14.46
2016-06-18T04:11:22.093Z,14.52
2016-06-18T04:12:22.150Z,14.47
2016-06-18T04:13:22.176Z,14.54
2016-06-18T04:14:22.231Z,14.47
2016-06-18T04:15:22.271Z,14.52
2016-06-18T04:16:22.355Z,14.57
2016-06-18T04:17:22.361Z,14.61
2016-06-18T04:18:22.397Z,14.62
2016-06-18T04:19:22.466Z,14.62
2016-06-18T04:20:22.486Z,14.65
2016-06-18T04:21:22.538Z,14.61
2016-06-18T04:22:22.604Z,14.72
2016-06-18T04:23:22.625Z,14.67
2016-06-18T04:24:22.644Z,14.69
2016-06-18T04:25:22.695Z,14.69
2016-06-18T04:26:22.730Z,14.71
2016-06-18T04:27:22.782Z,14.69
2016-06-18T04:28:22.816Z,14.74
2016-06-18T04:29:22.852Z,14.81
2016-06-18T04:30:22.918Z,14.81
2016-06-18T04:31:22.937Z,14.88
2016-06-18T04:32:22.971Z,14.9
2016-06-18T04:33:23.022Z,14.94
2016-06-18T04:34:23.072Z,14.94
2016-06-18T04:35:23.138Z,14.91
2016-06-18T04:36:23.127Z,14.86
2016-06-18T04:37:23.160Z,14.94
2016-06-18T04:38:23.226Z,14.98
2016-06-18T04:39:23.262Z,14.95
2016-06-18T04:40:23.296Z,14.98
2016-06-18T04:41:23.361Z,15.02
2016-06-18T04:42:23.397Z,15.06
2016-06-18T04:43:23.431Z,15.05
2016-06-18T04:44:23.466Z,15.06
2016-06-18T04:45:23.501Z,15.17
2016-06-18T04:46:23.567Z,15.12
2016-06-18T04:47:23.570Z,15.13
2016-06-18T04:48:23.621Z,15.05
2016-06-18T04:49:23.686Z,15.06
2016-06-18T04:50:23.690Z,15.19
2016-06-18T04:51:23.740Z,15.2
2016-06-18T04:52:23.775Z,15.19
2016-06-18T04:53:23.825Z,15.2
2016-06-18T04:54:23.906Z,15.2
2016-06-18T04:55:23.895Z,15.19
2016-06-18T04:56:23.929Z,15.23
2016-06-18T04:57:23.980Z,15.31
2016-06-18T04:58:24.045Z,15.28
2016-06-18T04:59:24.065Z,15.35
2016-06-18T05:00:24.099Z,15.33
2016-06-18T05:01:24.133Z,15.35
2016-06-18T05:02:24.200Z,15.38
2016-06-18T05:03:24.220Z,15.35
2016-06-18T05:04:24.301Z,15.46
2016-06-18T05:05:24.305Z,15.49
2016-06-18T05:06:24.339Z,15.45
2016-06-18T05:07:24.389Z,15.46
2016-06-18T05:08:24.440Z,15.49
2016-06-18T05:09:24.491Z,15.52
2016-06-18T05:10:24.493Z,15.52
2016-06-18T05:11:24.559Z,15.52
2016-06-18T05:12:24.626Z,15.61
2016-06-18T05:13:24.630Z,15.61
2016-06-18T05:14:24.647Z,15.61
2016-06-18T05:15:24.729Z,15.54
2016-06-18T05:16:24.779Z,15.66
2016-06-18T05:17:24.783Z,15.68
2016-06-18T05:18:24.818Z,15.63
2016-06-18T05:19:24.867Z,15.66
2016-06-18T05:20:24.918Z,15.67
2016-06-18T05:21:24.969Z,15.72
2016-06-18T05:22:24.988Z,15.75
2016-06-18T05:23:25.054Z,15.74
2016-06-18T05:24:25.074Z,15.76
2016-06-18T05:25:25.123Z,15.81
2016-06-18T05:26:25.158Z,15.78
2016-06-18T05:27:25.224Z,15.84
2016-06-18T05:28:25.227Z,15.89
2016-06-18T05:29:25.277Z,15.92
2016-06-18T05:30:25.328Z,15.85
2016-06-18T05:31:25.347Z,15.99
2016-06-18T05:32:25.398Z,15.93
2016-06-18T05:33:25.511Z,15.96
2016-06-18T05:34:25.482Z,15.97
2016-06-18T05:35:25.517Z,16
2016-06-18T05:36:25.568Z,16.04
2016-06-18T05:37:25.602Z,15.94
2016-06-18T05:38:25.668Z,15.99
2016-06-18T05:39:25.687Z,15.93
2016-06-18T05:40:25.723Z,15.97
2016-06-18T05:41:25.757Z,16.09
2016-06-18T05:42:25.808Z,16.12
2016-06-18T05:43:25.842Z,16.07
2016-06-18T05:44:25.923Z,16.06
2016-06-18T05:45:25.927Z,16.07
2016-06-18T05:46:25.977Z,16.14
2016-06-18T05:47:26.012Z,16.12
2016-06-18T05:48:26.703Z,16.14
2016-06-18T05:49:26.097Z,16.16
2016-06-18T05:50:26.132Z,16.23
2016-06-18T05:51:26.198Z,16.22
2016-06-18T05:52:26.248Z,16.23
2016-06-18T05:53:26.907Z,16.16
2016-06-18T05:54:26.302Z,16.15
2016-06-18T05:55:26.367Z,16.27
2016-06-18T05:56:26.403Z,16.3
2016-06-18T05:57:26.438Z,16.27
2016-06-18T05:58:26.456Z,16.26
2016-06-18T05:59:26.522Z,16.31
2016-06-18T06:00:26.557Z,16.33
2016-06-18T06:01:26.576Z,16.33
2016-06-18T06:02:26.658Z,16.26
2016-06-18T06:03:26.661Z,16.33
2016-06-18T06:04:26.726Z,16.35
2016-06-18T06:05:26.746Z,16.35
2016-06-18T06:06:26.813Z,16.4
2016-06-18T06:07:26.847Z,16.44
2016-06-18T06:08:26.865Z,16.45
2016-06-18T06:09:26.901Z,16.49
2016-06-18T06:10:26.966Z,16.48
2016-06-18T06:11:26.986Z,16.59
2016-06-18T06:12:27.036Z,16.58
2016-06-18T06:13:27.070Z,16.67
2016-06-18T06:14:27.121Z,16.59
2016-06-18T06:15:27.155Z,16.59
2016-06-18T06:16:27.847Z,16.74
2016-06-18T06:17:27.241Z,16.63
2016-06-18T06:18:27.307Z,16.74
2016-06-18T06:19:27.310Z,16.73
2016-06-18T06:20:27.361Z,16.71
2016-06-18T06:21:27.442Z,16.85
2016-06-18T06:22:27.445Z,16.8
2016-06-18T06:23:27.480Z,16.73
2016-06-18T06:24:27.561Z,16.88
2016-06-18T06:25:27.566Z,16.86
2016-06-18T06:26:27.600Z,16.93
2016-06-18T06:27:27.651Z,16.95
2016-06-18T06:28:27.703Z,17
2016-06-18T06:29:27.737Z,16.92
2016-06-18T06:30:27.774Z,16.99
2016-06-18T06:31:27.840Z,16.86
2016-06-18T06:32:27.875Z,16.96
2016-06-18T06:33:27.911Z,16.85
2016-06-18T06:34:27.945Z,16.98
2016-06-18T06:35:27.996Z,17.04
2016-06-18T06:36:28.062Z,16.99
2016-06-18T06:37:28.081Z,16.95
2016-06-18T06:38:28.131Z,16.98
2016-06-18T06:39:28.166Z,17.04
2016-06-18T06:40:28.186Z,17.06
2016-06-18T06:41:28.236Z,17.1
2016-06-18T06:42:28.270Z,17.06
2016-06-18T06:43:28.305Z,17.1
2016-06-18T06:44:28.355Z,17.14
2016-06-18T06:45:28.390Z,17.11
2016-06-18T06:46:28.441Z,17.14
2016-06-18T06:47:28.522Z,17.18
2016-06-18T06:48:28.525Z,17.15
2016-06-18T06:49:28.545Z,17.17
2016-06-18T06:50:28.611Z,17.2
2016-06-18T06:51:28.692Z,17.2
2016-06-18T06:52:28.696Z,17.25
2016-06-18T06:53:28.730Z,17.26
2016-06-18T06:54:28.780Z,17.22
2016-06-18T06:55:28.800Z,17.18
2016-06-18T06:56:28.866Z,17.35
2016-06-18T06:57:28.901Z,17.28
2016-06-18T06:58:28.966Z,17.38
2016-06-18T06:59:28.969Z,17.38
2016-06-18T07:00:29.020Z,17.33
2016-06-18T07:01:29.071Z,17.38
2016-06-18T07:02:29.090Z,17.33
2016-06-18T07:03:29.172Z,17.41
2016-06-18T07:04:29.174Z,17.46
2016-06-18T07:05:29.225Z,17.51
2016-06-18T07:06:29.322Z,17.47
2016-06-18T07:07:29.341Z,17.47
2016-06-18T07:08:29.345Z,17.54
2016-06-18T07:09:29.395Z,17.62
2016-06-18T07:10:29.429Z,17.55
2016-06-18T07:11:29.480Z,17.63
2016-06-18T07:12:29.515Z,17.62
2016-06-18T07:13:29.550Z,17.64
2016-06-18T07:14:29.616Z,17.67
2016-06-18T07:15:29.665Z,17.73
2016-06-18T07:16:29.716Z,17.74
2016-06-18T07:17:29.734Z,17.79
2016-06-18T07:18:29.770Z,17.88
2016-06-18T07:19:29.805Z,17.76
2016-06-18T07:20:29.840Z,17.94
2016-06-18T07:21:29.936Z,17.87
2016-06-18T07:22:29.956Z,17.85
2016-06-18T07:23:29.974Z,17.94
2016-06-18T07:24:30.009Z,18.04
2016-06-18T07:25:30.075Z,18.03
2016-06-18T07:26:30.126Z,18.04
2016-06-18T07:27:30.145Z,18.03
2016-06-18T07:28:30.210Z,18.09
2016-06-18T07:29:30.230Z,18.03
2016-06-18T07:30:30.264Z,18.03
2016-06-18T07:31:30.315Z,18.04
2016-06-18T07:32:30.381Z,18.07
2016-06-18T07:33:30.415Z,18.07
2016-06-18T07:34:30.451Z,18.18
2016-06-18T07:35:30.469Z,18.15
2016-06-18T07:36:30.551Z,18.18
2016-06-18T07:37:30.554Z,18.24
2016-06-18T07:38:30.604Z,18.25
2016-06-18T07:39:30.640Z,18.34
2016-06-18T07:40:30.689Z,18.29
2016-06-18T07:41:30.772Z,18.37
2016-06-18T07:42:30.775Z,18.34
2016-06-18T07:43:30.824Z,18.34
2016-06-18T07:44:30.844Z,18.39
2016-06-18T07:45:30.894Z,18.47
2016-06-18T07:46:30.929Z,18.4
2016-06-18T07:47:30.996Z,18.49
2016-06-18T07:48:31.030Z,18.46
2016-06-18T07:49:31.095Z,18.5
2016-06-18T07:50:31.115Z,18.5
2016-06-18T07:51:31.150Z,18.44
2016-06-18T07:52:31.855Z,18.47
2016-06-18T07:53:31.281Z,18.58
2016-06-18T07:54:31.269Z,18.46
2016-06-18T07:55:31.366Z,18.61
2016-06-18T07:56:31.354Z,18.61
2016-06-18T07:57:32.077Z,18.67
2016-06-18T07:58:31.440Z,18.61
2016-06-18T07:59:31.490Z,18.62
2016-06-18T08:00:31.555Z,18.61
2016-06-18T08:01:31.575Z,18.62
2016-06-18T08:02:31.609Z,18.68
2016-06-18T08:03:31.660Z,18.58
2016-06-18T08:04:31.694Z,18.65
2016-06-18T08:05:31.745Z,18.73
2016-06-18T08:06:32.451Z,18.7
2016-06-18T08:07:31.814Z,18.73
2016-06-18T08:08:31.880Z,18.82
2016-06-18T08:09:31.914Z,18.73
2016-06-18T08:10:31.934Z,18.84
2016-06-18T08:11:32.000Z,18.86
2016-06-18T08:12:32.191Z,18.9
2016-06-18T08:13:32.992Z,18.95
2016-06-18T08:14:32.119Z,18.95
2016-06-18T08:15:32.171Z,18.95
2016-06-18T08:16:32.235Z,19.05
2016-06-18T08:17:32.239Z,19.11
2016-06-18T08:18:32.274Z,19.15
2016-06-18T08:19:32.325Z,19.08
2016-06-18T08:20:32.375Z,19.2
2016-06-18T08:21:32.425Z,19.08
2016-06-18T08:22:32.444Z,19.08
2016-06-18T08:23:32.510Z,19.21
2016-06-18T08:24:32.576Z,19.11
2016-06-18T08:25:32.595Z,19.21
2016-06-18T08:26:32.631Z,19.17
2016-06-18T08:27:32.712Z,19.24
2016-06-18T08:28:32.746Z,19.24
2016-06-18T08:29:32.749Z,19.33
2016-06-18T08:30:32.784Z,19.35
2016-06-18T08:31:32.835Z,19.4
2016-06-18T08:32:32.901Z,19.35
2016-06-18T08:33:32.936Z,19.42
2016-06-18T08:34:32.955Z,19.54
2016-06-18T08:35:33.036Z,19.61
2016-06-18T08:36:33.102Z,19.65
2016-06-18T08:37:33.105Z,19.65
2016-06-18T08:38:33.140Z,19.76
2016-06-18T08:39:33.222Z,19.87
2016-06-18T08:40:33.257Z,19.83
2016-06-18T08:41:33.260Z,19.95
2016-06-18T08:42:33.310Z,19.94
2016-06-18T08:43:33.363Z,19.91
2016-06-18T08:47:09.812Z,19.93
2016-06-18T08:47:21.422Z,19.93
2016-06-18T08:47:37.437Z,20
2016-06-18T08:48:38.148Z,19.93
2016-06-18T08:49:38.310Z,19.93
2016-06-18T08:50:37.596Z,19.93
2016-06-18T08:51:37.648Z,20.02
2016-06-18T08:52:37.715Z,20.02
2016-06-18T08:53:39.095Z,20.05
2016-06-18T08:54:37.755Z,20.05
2016-06-18T08:55:37.822Z,20.06
2016-06-18T08:56:37.872Z,20.03
2016-06-18T08:57:37.907Z,20.06
2016-06-18T08:58:37.943Z,20.18
2016-06-18T08:59:37.993Z,20.18
2016-06-18T09:00:38.059Z,20.3
2016-06-18T09:01:38.064Z,20.28
2016-06-18T09:02:38.146Z,20.25
2016-06-18T09:03:38.179Z,20.33
2016-06-18T09:04:38.215Z,20.28
2016-06-18T09:05:38.250Z,20.33
2016-06-18T09:06:38.284Z,20.27
2016-06-18T09:07:38.350Z,20.39
2016-06-18T09:08:38.385Z,20.43
2016-06-18T09:09:38.420Z,20.49
2016-06-18T09:10:38.470Z,20.58
2016-06-18T09:11:38.504Z,20.65
2016-06-18T09:12:38.555Z,20.77
2016-06-18T09:13:38.590Z,20.84
2016-06-18T09:14:39.281Z,20.87
2016-06-18T09:15:39.378Z,20.8
2016-06-18T09:16:38.725Z,20.86
2016-06-18T09:17:38.776Z,20.87
2016-06-18T09:20:15.878Z,20.9
2016-06-18T09:21:15.944Z,20.77
2016-06-18T09:22:15.947Z,20.84
2016-06-18T09:23:16.013Z,20.84
2016-06-18T09:24:16.064Z,20.86
2016-06-18T09:25:16.099Z,20.8
2016-06-18T09:26:16.148Z,20.87
2016-06-18T09:27:16.199Z,20.89
2016-06-18T09:28:16.391Z,20.99
2016-06-18T09:29:16.253Z,21.04
2016-06-18T09:30:16.225Z,21.02
2016-06-18T09:31:16.307Z,20.98
2016-06-18T09:32:16.358Z,20.96
2016-06-18T09:33:16.377Z,20.99
2016-06-18T09:34:16.442Z,21.05
2016-06-18T09:35:17.149Z,21.01
2016-06-18T09:36:16.527Z,21.01
2016-06-18T09:37:16.577Z,21.02
2016-06-18T09:38:16.597Z,21.04
2016-06-18T09:39:16.648Z,21.04
2016-06-18T09:40:17.057Z,21.04
2016-06-18T09:41:16.764Z,21.17
2016-06-18T09:42:16.767Z,21.06
2016-06-18T09:43:16.865Z,21.06
2016-06-18T09:44:16.867Z,21.26
2016-06-18T09:45:16.902Z,21.24
2016-06-18T09:46:16.953Z,21.26
2016-06-18T09:47:17.003Z,21.21
2016-06-18T09:48:17.053Z,21.27
2016-06-18T09:49:17.088Z,21.27
2016-06-18T09:50:17.763Z,21.29
2016-06-18T09:51:17.189Z,21.34
2016-06-18T09:52:17.208Z,21.46
2016-06-18T09:53:17.258Z,21.5
2016-06-18T09:54:18.652Z,21.48
2016-06-18T09:55:18.000Z,21.63
2016-06-18T09:56:17.393Z,21.78
2016-06-18T09:57:17.460Z,21.79
2016-06-18T09:58:17.510Z,21.9
2016-06-18T09:59:17.528Z,22.01
2016-06-18T10:00:17.563Z,22.19
2016-06-18T10:01:17.629Z,22.27
2016-06-18T10:02:17.664Z,22.32
2016-06-18T10:03:17.714Z,22.27
2016-06-18T10:04:17.765Z,22.35
2016-06-18T10:05:17.799Z,22.44
2016-06-18T10:06:17.834Z,22.53
2016-06-18T10:07:17.900Z,22.56
2016-06-18T10:08:17.966Z,22.68
2016-06-18T10:09:18.017Z,22.71
2016-06-18T10:10:18.020Z,22.77
2016-06-18T10:11:18.758Z,22.74
2016-06-18T10:12:18.137Z,22.71
2016-06-18T10:13:18.812Z,22.64
2016-06-18T10:14:18.205Z,22.59
2016-06-18T10:15:18.927Z,22.6
2016-06-18T10:16:18.337Z,22.53
2016-06-18T10:17:18.341Z,22.38
2016-06-18T10:18:18.375Z,22.34
2016-06-18T10:19:18.442Z,22.39
2016-06-18T10:20:18.493Z,22.46
2016-06-18T10:21:18.527Z,22.6
2016-06-18T10:22:18.577Z,22.57
2016-06-18T10:23:18.612Z,22.77
2016-06-18T10:24:18.662Z,22.92
2016-06-18T10:25:18.712Z,23.05
2016-06-18T10:26:18.762Z,23.22
2016-06-18T10:27:18.813Z,23.2
2016-06-18T10:28:18.832Z,23.2
2016-06-18T10:29:18.882Z,23.14
2016-06-18T10:30:18.964Z,23.12
2016-06-18T10:31:18.968Z,23.05
2016-06-18T10:32:19.017Z,23.11
2016-06-18T10:33:19.084Z,22.99
2016-06-18T10:34:19.103Z,22.94
2016-06-18T10:35:19.153Z,22.92
2016-06-18T10:36:19.203Z,22.78
2016-06-18T10:37:19.253Z,22.8
2016-06-18T10:38:19.304Z,22.68
2016-06-18T10:39:19.355Z,22.62
2016-06-18T10:40:19.420Z,22.57
2016-06-18T10:41:19.423Z,22.46
2016-06-18T10:42:19.474Z,22.39
2016-06-18T10:43:19.509Z,22.22
2016-06-18T10:44:19.558Z,22.01
2016-06-18T10:45:19.642Z,21.88
2016-06-18T10:46:19.645Z,21.82
2016-06-18T10:47:20.335Z,21.54
2016-06-18T10:48:19.744Z,21.42
2016-06-18T10:49:19.780Z,21.21
2016-06-18T10:50:19.815Z,21.06
2016-06-18T10:51:19.896Z,20.98
2016-06-18T10:52:20.587Z,20.89
2016-06-18T10:53:19.965Z,20.84
2016-06-18T10:54:20.001Z,20.86
2016-06-18T10:55:20.066Z,20.8
2016-06-18T10:56:20.100Z,20.76
2016-06-18T10:57:20.120Z,20.83
2016-06-18T10:58:20.201Z,20.87
2016-06-18T10:59:20.549Z,20.95
2016-06-18T11:00:20.272Z,21.04
2016-06-18T11:01:20.290Z,21.06
2016-06-18T11:02:20.356Z,21.13
2016-06-18T11:03:20.375Z,21.2
2016-06-18T11:04:20.425Z,21.41
2016-06-18T11:05:20.476Z,21.45
2016-06-18T11:06:20.557Z,21.61
2016-06-18T11:07:20.561Z,21.64
2016-06-18T11:08:20.611Z,21.82
2016-06-18T11:09:20.693Z,22.06
2016-06-18T11:10:20.696Z,22.25
2016-06-18T11:11:20.731Z,22.62
2016-06-18T11:12:20.781Z,22.84
2016-06-18T11:13:20.816Z,23.2
2016-06-18T11:14:20.866Z,23.34
2016-06-18T11:15:20.916Z,23.61
2016-06-18T11:16:20.982Z,24.38
2016-06-18T11:17:21.002Z,25.27
2016-06-18T11:18:21.052Z,26.21
2016-06-18T11:19:21.102Z,26.57
2016-06-18T11:20:21.152Z,27.06
2016-06-18T11:21:21.203Z,27.31
2016-06-18T11:22:21.238Z,27.21
2016-06-18T11:23:21.287Z,27.05
2016-06-18T11:24:21.355Z,26.94
2016-06-18T11:25:21.387Z,26.73
2016-06-18T11:26:21.438Z,26.64
2016-06-18T11:27:21.472Z,26.47
2016-06-18T11:28:21.537Z,26.36
2016-06-18T11:29:21.573Z,26.27
2016-06-18T11:30:21.622Z,26.09
2016-06-18T11:31:21.673Z,26.08
2016-06-18T11:32:21.724Z,26.04
2016-06-18T11:33:21.758Z,25.98
2016-06-18T11:34:22.465Z,25.9
2016-06-18T11:41:23.667Z,25.74
2016-06-18T11:42:23.701Z,25.62
2016-06-18T11:43:23.752Z,25.69
2016-06-18T11:44:23.818Z,25.91
2016-06-18T11:45:23.837Z,26.46
2016-06-18T11:46:23.887Z,27.41
2016-06-18T11:47:23.939Z,28.23
2016-06-18T11:48:23.972Z,28.58
2016-06-18T11:49:39.976Z,28.69
2016-06-18T11:50:24.073Z,28.6
2016-06-18T11:51:24.139Z,28.41
2016-06-18T11:52:24.221Z,28.31
2016-06-18T11:53:24.224Z,28.11
2016-06-18T11:54:24.291Z,27.89
2016-06-18T11:55:24.403Z,27.69
2016-06-18T11:56:24.392Z,27.5
2016-06-18T11:57:24.442Z,27.41
2016-06-18T11:58:24.492Z,27.31
2016-06-18T11:59:24.529Z,27.19
2016-06-18T12:00:24.580Z,27.14
2016-06-18T12:01:24.631Z,27.04
2016-06-18T12:02:24.698Z,26.86
2016-06-18T12:03:24.749Z,26.76
2016-06-18T12:04:25.441Z,26.59
2016-06-18T12:05:24.819Z,26.43
2016-06-18T12:06:24.917Z,26.36
2016-06-18T12:07:24.968Z,26.21
2016-06-18T12:08:24.972Z,26.12
2016-06-18T12:09:25.006Z,25.93
2016-06-18T12:10:25.135Z,25.98
2016-06-18T12:11:25.123Z,26.2
2016-06-18T12:12:25.189Z,26.72
2016-06-18T12:13:25.208Z,27.46
2016-06-18T12:14:25.258Z,28.41
2016-06-18T12:15:25.340Z,29.22
2016-06-18T12:16:25.375Z,30.08
2016-06-18T12:17:25.409Z,30.96
2016-06-18T12:18:25.508Z,31.64
2016-06-18T12:19:25.542Z,32.49
2016-06-18T12:20:25.577Z,33.26
2016-06-18T12:21:25.628Z,33.76
2016-06-18T12:22:25.709Z,34.51
2016-06-18T12:23:25.759Z,35.1
2016-06-18T12:24:25.810Z,35.62
2016-06-18T12:25:25.861Z,36.14
2016-06-18T12:26:25.942Z,36.54
2016-06-18T12:27:25.961Z,36.94
2016-06-18T12:28:26.027Z,37.35
2016-06-18T12:29:26.125Z,37.7
2016-06-18T12:30:26.159Z,37.89
2016-06-18T12:31:26.209Z,38.32
2016-06-18T12:32:26.275Z,38.55
2016-06-18T12:33:26.326Z,38.67
2016-06-18T12:34:26.391Z,38.98
2016-06-18T12:35:26.473Z,39.08
2016-06-18T12:36:26.524Z,39.28
2016-06-18T12:37:26.590Z,39.43
2016-06-18T12:38:26.640Z,39.62
2016-06-18T12:39:26.706Z,39.62
2016-06-18T12:40:26.788Z,39.86
2016-06-18T12:41:26.854Z,39.95
2016-06-18T12:42:26.888Z,40
2016-06-18T12:43:26.970Z,40.17
2016-06-18T12:44:27.052Z,40.29
2016-06-18T12:45:27.086Z,40.45
2016-06-18T12:46:27.824Z,40.57
2016-06-18T12:47:27.218Z,40.69
2016-06-18T12:48:27.268Z,40.74
2016-06-18T12:49:27.335Z,40.76
2016-06-18T12:50:27.400Z,40.79
2016-06-18T12:51:27.498Z,40.87
2016-06-18T12:52:27.533Z,40.86
2016-06-18T12:53:27.615Z,41
2016-06-18T12:54:27.650Z,41.08
2016-06-18T12:55:27.732Z,41.12
2016-06-18T12:56:27.814Z,41.18
2016-06-18T12:57:27.880Z,41.29
2016-06-18T12:58:27.915Z,41.47
2016-06-18T12:59:28.011Z,41.36
2016-06-18T13:00:28.047Z,41.08
2016-06-18T13:01:28.112Z,41.03
2016-06-18T13:02:28.804Z,41.09
2016-06-18T13:03:28.291Z,41.2
2016-06-18T13:04:28.310Z,41.37